Airfield :
LOGIN :

Register | Disclaimer

   EN    FR    IT 

 










Legend :    VFR   Marginal VFR   IFR   Intensive IFR   Very Intensive IFR
Visi :
Ceiling :
>= 8 km
>= 3000ft
5 to 8 km
1000 to 3000 ft
1500m to 5 km
500 to 1000 ft
800 to 1500m
200 to 500 ft
< 800m
< 200 ft
Symbols :   Thunderstorms  Fog  Heavy snow  Heavy precipitations  Wind > 20 kt
SIGMETs :     Misc.  Thunderstorms  Icing  Turbulence  Mountain Waves  Volcanic Ashes






- Airport Elevation : 188 ft
- IATA code : ORB


ESOE - Örebro

CURRENT METAR :
  • 181950Z AUTO 08004KT 9999 VV004 10/09 Q1004

EXPIRED METARs :
  • 181920Z 06005KT 9999 DZ OVC005 10/09 Q1004
  • 181850Z 06006KT 9999 OVC006 10/09 Q1004
  • 181820Z 05007KT 6000 DZ BKN006 10/09 Q1005
  • 181750Z 05007KT 5000 -RA BKN006 10/09 Q1005
  • 181720Z 06007KT 5000 -RA SCT007 BKN011 10/09 Q1005

TAF TAF ESOE
Valid from the 18 at 18:00 until the 18 at 21:00 UTC


181730Z 1818/1821 11005KT 8000 BKN015
TEMPO 1818/1819 4000 -RA BKN009
BECMG 1819/1821 2000 BR BKN004



MET'MAP, your aeronautical weather chart ! - Copyright ORBIFLY December 2007 - Disclaimer

ORBIFLY MET'MAP TEAM :

Programming & Development : Alexandra Zaïnal
Concept & Development : Baudouin d'Aumeries
Co-Development & Prog : Marc-Olivier Méhu
Technical & hardware support : Manuel Goepfert

Contact : metmap@orbifly.com




SOURCES & CREDITS :

   NOAA